CheckWX is a tool to help pilots better visualize weather data.  It is not intended as a substitute for an official pre-flight weather briefing.

07:28:37 UTC

GMMW TAF
Nador International Airport
Nador, Morocco
TAF GMMW 260500Z 2606/2712 24006KT CAVOK

Feb-26@
06:00 UTC

Feb-26 @ 06:00 UTC

Feb-27@
12:00 UTC

Feb-27 @ 12:00 UTC

TAF GMMW 260500Z 2606/2712 24006KT CAVOK
Wind
  • 240° at 6 KTS
Conditions
No significant weather
Cloud Levels
  • No significant clouds